Senkursk, Russia
Current Conditions -  °F | °C
As of 8:30 PM on Friday 31 Oct 2014 (Local Time) from ULAA Reporting Station
Broken Clouds Broken Clouds  
Wind Chill: 23°   Ceiling: 2500
Heat Index: 28°   Visibility: 6mi
Dew Point: 28°   Wind: 4mph
Humidity: 100%   Direction: 340°NNW
Pressure: 29.94"   Gusts: NA
Location:  62.1°N, 42.9°E
Report Text: ULAA 311730Z 34002MPS 9999 BKN025 BKN/// M02/M02 Q1014 NOSIG RMK QFE759/1012 SC045
Loading
Personal Weather Stations






























Interactive Weather Map
Tropical Storm Tracking
New forecast layout! Learn more

10-Day Weather Forecast

Advertisements
Track Severe Weather on mobile